createdAt,value
2019-02-22T00:00:12.820Z,91.87
2019-02-22T00:01:12.799Z,90.95
2019-02-22T00:02:12.775Z,90.23
2019-02-22T00:03:12.756Z,89.72
2019-02-22T00:04:12.757Z,90.17
2019-02-22T00:05:12.735Z,90.58
2019-02-22T00:06:12.757Z,90.89
2019-02-22T00:07:12.717Z,90.89
2019-02-22T00:08:12.706Z,91.71
2019-02-22T00:09:12.689Z,91.86
2019-02-22T00:10:12.706Z,92.02
2019-02-22T00:12:13.703Z,91.96
2019-02-22T00:13:12.647Z,91.65
2019-02-22T00:14:12.634Z,91.55
2019-02-22T00:15:12.623Z,91.65
2019-02-22T00:16:12.614Z,91.86
2019-02-22T00:17:12.628Z,92.06
2019-02-22T00:18:12.589Z,91.96
2019-02-22T00:19:12.582Z,91.96
2019-02-22T00:20:12.574Z,91.96
2019-02-22T00:21:12.560Z,92.06
2019-02-22T00:22:12.593Z,91.86
2019-02-22T00:23:12.540Z,91.75
2019-02-22T00:24:12.521Z,91.86
2019-02-22T00:25:12.514Z,91.55
2019-02-22T00:26:12.501Z,91.96
2019-02-22T00:27:12.531Z,91.96
2019-02-22T00:28:12.490Z,91.96
2019-02-22T00:29:12.465Z,91.65
2019-02-22T00:30:12.472Z,91.65
2019-02-22T00:31:12.451Z,91.65
2019-02-22T00:32:12.456Z,91.65
2019-02-22T00:33:12.425Z,91.86
2019-02-22T00:34:12.464Z,92.06
2019-02-22T00:35:12.430Z,92.27
2019-02-22T00:36:14.042Z,91.55
2019-02-22T00:37:12.530Z,91.86
2019-02-22T00:38:12.373Z,91.86
2019-02-22T00:39:12.412Z,91.96
2019-02-22T00:40:12.376Z,91.96
2019-02-22T00:41:12.335Z,91.55
2019-02-22T00:42:12.344Z,91.91
2019-02-22T00:43:12.315Z,92.06
2019-02-22T00:44:12.301Z,92.06
2019-02-22T00:45:12.302Z,91.55
2019-02-22T00:46:12.284Z,91.86
2019-02-22T00:47:12.294Z,91.65
2019-02-22T00:48:12.339Z,92.06
2019-02-22T00:49:12.248Z,91.82
2019-02-22T00:50:12.242Z,90.99
2019-02-22T00:51:12.220Z,91.35
2019-02-22T00:52:12.264Z,91.03
2019-02-22T00:53:12.370Z,90.83
2019-02-22T00:54:12.188Z,91.61
2019-02-22T00:55:12.231Z,92.47
2019-02-22T00:56:12.171Z,92.32
2019-02-22T00:57:12.191Z,91.71
2019-02-22T00:58:12.315Z,92.08
2019-02-22T00:59:12.130Z,91.16
2019-02-22T01:00:12.121Z,90.91
2019-02-22T01:01:12.115Z,90.19
2019-02-22T01:02:12.135Z,90.45
2019-02-22T01:03:12.181Z,89.80
2019-02-22T01:04:12.079Z,88.47
2019-02-22T01:05:12.068Z,87.45
2019-02-22T01:06:12.054Z,88.06
2019-02-22T01:07:12.070Z,87.76
2019-02-22T01:08:12.027Z,86.83
2019-02-22T01:09:12.019Z,86.73
2019-02-22T01:10:12.006Z,86.98
2019-02-22T01:11:11.996Z,87.84
2019-02-22T01:12:12.092Z,88.39
2019-02-22T01:13:11.999Z,89.92
2019-02-22T01:14:11.962Z,90.28
2019-02-22T01:15:11.999Z,90.58
2019-02-22T01:16:11.939Z,91.03
2019-02-22T01:17:11.931Z,90.89
2019-02-22T01:18:11.950Z,91.35
2019-02-22T01:19:11.912Z,91.86
2019-02-22T01:20:11.904Z,91.35
2019-02-22T01:21:11.889Z,91.09
2019-02-22T01:22:11.888Z,92.06
2019-02-22T01:23:11.888Z,91.86
2019-02-22T01:24:11.858Z,91.55
2019-02-22T01:25:11.839Z,92.06
2019-02-22T01:26:11.830Z,91.96
2019-02-22T01:27:11.817Z,91.86
2019-02-22T01:28:11.835Z,91.44
2019-02-22T01:29:11.808Z,92.06
2019-02-22T01:30:11.792Z,91.96
2019-02-22T01:31:11.773Z,92.12
2019-02-22T01:32:11.774Z,92.06
2019-02-22T01:33:11.775Z,92.16
2019-02-22T01:34:11.743Z,92.12
2019-02-22T01:35:11.728Z,92.12
2019-02-22T01:36:11.716Z,92.22
2019-02-22T01:37:11.728Z,92.02
2019-02-22T01:38:11.716Z,91.96
2019-02-22T01:39:11.714Z,92.06
2019-02-22T01:40:11.671Z,91.55
2019-02-22T01:41:11.663Z,91.40
2019-02-22T01:42:11.651Z,91.82
2019-02-22T01:43:11.637Z,91.86
2019-02-22T01:44:11.649Z,92.06
2019-02-22T01:45:11.622Z,92.36
2019-02-22T01:46:11.605Z,92.16
2019-02-22T01:47:11.592Z,92.98
2019-02-22T01:48:11.621Z,92.83
2019-02-22T01:49:11.593Z,92.68
2019-02-22T01:50:11.567Z,92.63
2019-02-22T01:51:11.547Z,92.74
2019-02-22T01:52:11.543Z,92.88
2019-02-22T01:53:11.546Z,92.78
2019-02-22T01:54:11.609Z,92.43
2019-02-22T01:55:11.504Z,92.12
2019-02-22T01:56:11.496Z,92.06
2019-02-22T01:57:11.491Z,92.63
2019-02-22T01:58:11.521Z,92.22
2019-02-22T01:59:11.487Z,92.74
2019-02-22T02:00:11.451Z,92.57
2019-02-22T02:01:11.441Z,92.63
2019-02-22T02:02:11.475Z,92.53
2019-02-22T02:03:11.414Z,91.82
2019-02-22T02:04:11.483Z,92.12
2019-02-22T02:05:11.397Z,92.02
2019-02-22T02:06:11.379Z,92.12
2019-02-22T02:07:11.376Z,91.96
2019-02-22T02:08:11.366Z,92.43
2019-02-22T02:09:11.377Z,92.94
2019-02-22T02:10:11.341Z,92.43
2019-02-22T02:11:11.325Z,92.63
2019-02-22T02:12:11.313Z,92.83
2019-02-22T02:13:11.306Z,92.74
2019-02-22T02:14:11.289Z,92.78
2019-02-22T02:15:11.379Z,92.68
2019-02-22T02:16:11.267Z,92.57
2019-02-22T02:17:11.264Z,92.68
2019-02-22T02:18:11.250Z,92.47
2019-02-22T02:19:11.236Z,92.63
2019-02-22T02:20:11.286Z,92.43
2019-02-22T02:21:11.218Z,92.68
2019-02-22T02:22:11.202Z,93.39
2019-02-22T02:23:11.191Z,93.04
2019-02-22T02:24:11.183Z,93.55
2019-02-22T02:25:11.197Z,92.83
2019-02-22T02:26:11.165Z,92.69
2019-02-22T02:27:11.149Z,92.55
2019-02-22T02:28:11.134Z,91.31
2019-02-22T02:29:11.124Z,91.27
2019-02-22T02:30:11.144Z,91.69
2019-02-22T02:31:11.111Z,89.90
2019-02-22T02:32:11.098Z,89.90
2019-02-22T02:33:11.077Z,88.57
2019-02-22T02:34:11.066Z,88.47
2019-02-22T02:35:11.084Z,88.26
2019-02-22T02:36:11.051Z,87.70
2019-02-22T02:37:11.040Z,87.79
2019-02-22T02:38:11.023Z,88.10
2019-02-22T02:39:11.022Z,88.35
2019-02-22T02:40:11.034Z,88.45
2019-02-22T02:41:11.687Z,88.86
2019-02-22T02:42:10.984Z,89.27
2019-02-22T02:43:10.978Z,89.72
2019-02-22T02:44:10.962Z,89.92
2019-02-22T02:45:11.047Z,90.58
2019-02-22T02:46:10.973Z,90.69
2019-02-22T02:47:10.931Z,91.16
2019-02-22T02:48:10.988Z,91.20
2019-02-22T02:49:10.911Z,90.89
2019-02-22T02:50:10.898Z,91.91
2019-02-22T02:51:10.936Z,91.91
2019-02-22T02:52:10.886Z,91.71
2019-02-22T02:53:10.864Z,91.71
2019-02-22T02:54:10.864Z,91.71
2019-02-22T02:55:10.854Z,91.14
2019-02-22T02:56:10.883Z,91.09
2019-02-22T02:57:10.822Z,91.61
2019-02-22T02:58:10.805Z,91.82
2019-02-22T02:59:10.795Z,91.91
2019-02-22T03:00:10.788Z,92.12
2019-02-22T03:01:10.793Z,92.02
2019-02-22T03:02:10.792Z,92.22
2019-02-22T03:03:10.751Z,91.61
2019-02-22T03:04:10.743Z,91.09
2019-02-22T03:05:10.731Z,91.09
2019-02-22T03:06:10.747Z,91.61
2019-02-22T03:07:10.704Z,91.09
2019-02-22T03:08:10.692Z,91.61
2019-02-22T03:09:10.679Z,91.71
2019-02-22T03:10:10.671Z,91.40
2019-02-22T03:11:20.064Z,91.09
2019-02-22T03:12:11.656Z,91.50
2019-02-22T03:13:10.638Z,91.09
2019-02-22T03:14:10.626Z,91.50
2019-02-22T03:15:10.612Z,91.82
2019-02-22T03:16:10.630Z,91.91
2019-02-22T03:17:10.592Z,92.02
2019-02-22T03:18:10.583Z,91.82
2019-02-22T03:19:10.627Z,91.82
2019-02-22T03:20:10.557Z,91.55
2019-02-22T03:21:10.544Z,91.40
2019-02-22T03:22:10.565Z,91.91
2019-02-22T03:23:10.525Z,92.06
2019-02-22T03:24:10.512Z,92.16
2019-02-22T03:25:10.503Z,92.02
2019-02-22T03:26:10.497Z,92.63
2019-02-22T03:27:10.504Z,92.68
2019-02-22T03:28:10.471Z,92.83
2019-02-22T03:29:10.475Z,92.98
2019-02-22T03:30:10.470Z,92.02
2019-02-22T03:31:10.448Z,91.91
2019-02-22T03:32:10.449Z,91.82
2019-02-22T03:33:10.412Z,92.02
2019-02-22T03:34:10.403Z,91.96
2019-02-22T03:35:10.389Z,92.47
2019-02-22T03:36:10.377Z,92.63
2019-02-22T03:37:10.397Z,92.68
2019-02-22T03:38:10.357Z,92.47
2019-02-22T03:39:10.349Z,92.36
2019-02-22T03:40:10.332Z,92.57
2019-02-22T03:41:10.395Z,92.36
2019-02-22T03:42:10.339Z,92.47
2019-02-22T03:43:10.303Z,92.68
2019-02-22T03:44:10.302Z,92.47
2019-02-22T03:45:10.283Z,92.43
2019-02-22T03:46:10.267Z,92.36
2019-02-22T03:47:10.284Z,92.43
2019-02-22T03:48:10.287Z,92.43
2019-02-22T03:49:10.232Z,92.57
2019-02-22T03:50:10.364Z,92.43
2019-02-22T03:51:10.210Z,92.32
2019-02-22T03:52:10.359Z,92.27
2019-02-22T03:53:10.194Z,92.63
2019-02-22T03:54:10.177Z,92.63
2019-02-22T03:55:10.170Z,92.74
2019-02-22T03:56:10.156Z,92.43
2019-02-22T03:57:10.246Z,92.47
2019-02-22T03:58:10.294Z,92.68
2019-02-22T03:59:10.136Z,92.43
2019-02-22T04:00:10.112Z,92.36
2019-02-22T04:01:10.109Z,92.63
2019-02-22T04:02:10.089Z,92.74
2019-02-22T04:03:10.105Z,92.53
2019-02-22T04:04:10.073Z,92.83
2019-02-22T04:05:10.056Z,92.83
2019-02-22T04:06:10.065Z,92.36
2019-02-22T04:07:10.043Z,92.43
2019-02-22T04:08:10.104Z,92.47
2019-02-22T04:09:10.011Z,92.68
2019-02-22T04:10:10.049Z,92.47
2019-02-22T04:11:09.992Z,92.53
2019-02-22T04:12:09.977Z,92.68
2019-02-22T04:13:09.999Z,92.57
2019-02-22T04:14:09.961Z,92.47
2019-02-22T04:15:09.948Z,92.57
2019-02-22T04:16:09.933Z,93.39
2019-02-22T04:17:11.542Z,93.08
2019-02-22T04:18:09.972Z,93.19
2019-02-22T04:19:09.925Z,93.39
2019-02-22T04:20:09.892Z,93.39
2019-02-22T04:21:09.883Z,93.49
2019-02-22T04:22:09.872Z,93.39
2019-02-22T04:23:09.860Z,93.19
2019-02-22T04:24:09.886Z,93.19
2019-02-22T04:25:09.845Z,93.08
2019-02-22T04:26:09.821Z,93.39
2019-02-22T04:27:09.816Z,93.08
2019-02-22T04:28:09.800Z,93.08
2019-02-22T04:29:09.811Z,93.39
2019-02-22T04:30:09.776Z,93.29
2019-02-22T04:31:09.773Z,93.08
2019-02-22T04:32:09.756Z,93.29
2019-02-22T04:33:09.748Z,93.19
2019-02-22T04:34:09.757Z,92.57
2019-02-22T04:35:09.720Z,92.78
2019-02-22T04:36:09.708Z,92.68
2019-02-22T04:37:09.711Z,92.68
2019-02-22T04:38:09.697Z,92.47
2019-02-22T04:39:09.717Z,92.32
2019-02-22T04:40:09.664Z,92.68
2019-02-22T04:41:09.653Z,92.78
2019-02-22T04:42:09.653Z,92.78
2019-02-22T04:43:09.632Z,92.78
2019-02-22T04:44:09.651Z,92.27
2019-02-22T04:45:09.614Z,92.47
2019-02-22T04:46:09.595Z,92.36
2019-02-22T04:47:09.593Z,92.78
2019-02-22T04:48:09.582Z,92.68
2019-02-22T04:49:09.595Z,92.57
2019-02-22T04:50:09.598Z,92.47
2019-02-22T04:51:09.547Z,92.57
2019-02-22T04:52:09.530Z,92.47
2019-02-22T04:53:09.526Z,92.47
2019-02-22T04:54:09.533Z,92.68
2019-02-22T04:55:09.533Z,92.68
2019-02-22T04:56:09.485Z,92.57
2019-02-22T04:57:09.473Z,92.68
2019-02-22T04:58:09.463Z,92.68
2019-02-22T04:59:09.453Z,92.57
2019-02-22T05:00:09.465Z,92.78
2019-02-22T05:01:09.428Z,92.78
2019-02-22T05:02:09.420Z,92.78
2019-02-22T05:03:09.405Z,92.78
2019-02-22T05:04:09.394Z,92.78
2019-02-22T05:05:09.417Z,92.68
2019-02-22T05:06:09.373Z,92.88
2019-02-22T05:07:09.360Z,92.78
2019-02-22T05:08:09.349Z,92.78
2019-02-22T05:09:09.337Z,92.68
2019-02-22T05:10:09.363Z,92.57
2019-02-22T05:11:09.328Z,92.57
2019-02-22T05:12:11.080Z,92.57
2019-02-22T05:13:09.293Z,92.47
2019-02-22T05:14:09.283Z,92.27
2019-02-22T05:15:12.880Z,92.47
2019-02-22T05:16:09.290Z,92.78
2019-02-22T05:17:09.321Z,92.68
2019-02-22T05:18:09.239Z,92.88
2019-02-22T05:19:09.228Z,92.68
2019-02-22T05:20:09.237Z,92.68
2019-02-22T05:21:09.236Z,92.47
2019-02-22T05:22:09.195Z,92.68
2019-02-22T05:23:09.183Z,92.78
2019-02-22T05:24:09.177Z,92.68
2019-02-22T05:25:09.159Z,92.78
2019-02-22T05:26:09.172Z,92.78
2019-02-22T05:27:09.137Z,92.57
2019-02-22T05:28:09.132Z,92.78
2019-02-22T05:29:09.121Z,92.36
2019-02-22T05:30:09.103Z,92.68
2019-02-22T05:31:09.123Z,92.98
2019-02-22T05:32:09.088Z,92.88
2019-02-22T05:33:09.072Z,92.47
2019-02-22T05:34:09.058Z,91.96
2019-02-22T05:35:09.047Z,92.47
2019-02-22T05:36:09.061Z,92.16
2019-02-22T05:37:09.023Z,92.68
2019-02-22T05:38:09.013Z,92.78
2019-02-22T05:39:18.502Z,92.68
2019-02-22T05:40:09.996Z,92.47
2019-02-22T05:41:09.015Z,92.47
2019-02-22T05:42:08.975Z,92.47
2019-02-22T05:43:08.960Z,91.82
2019-02-22T05:44:08.945Z,92.02
2019-02-22T05:45:08.940Z,92.06
2019-02-22T05:46:08.960Z,92.16
2019-02-22T05:47:08.950Z,92.27
2019-02-22T05:48:08.905Z,91.44
2019-02-22T05:49:08.889Z,91.65
2019-02-22T05:50:08.886Z,91.71
2019-02-22T05:51:08.874Z,91.44
2019-02-22T05:52:08.887Z,91.75
2019-02-22T05:53:08.846Z,91.75
2019-02-22T05:54:08.848Z,91.86
2019-02-22T05:55:08.823Z,91.96
2019-02-22T05:56:08.812Z,92.06
2019-02-22T05:57:08.890Z,92.02
2019-02-22T05:58:08.800Z,91.96
2019-02-22T05:59:08.784Z,91.86
2019-02-22T06:00:08.768Z,91.86
2019-02-22T06:01:08.755Z,91.86
2019-02-22T06:02:08.890Z,92.16
2019-02-22T06:03:08.754Z,91.82
2019-02-22T06:04:08.745Z,91.75
2019-02-22T06:05:08.711Z,91.65
2019-02-22T06:06:08.720Z,91.44
2019-02-22T06:07:08.713Z,91.86
2019-02-22T06:08:09.170Z,91.44
2019-02-22T06:09:08.667Z,91.86
2019-02-22T06:10:08.658Z,92.27
2019-02-22T06:11:08.661Z,91.86
2019-02-22T06:12:08.634Z,92.06
2019-02-22T06:13:08.654Z,92.06
2019-02-22T06:14:08.622Z,92.16
2019-02-22T06:15:08.605Z,92.27
2019-02-22T06:16:08.590Z,92.02
2019-02-22T06:17:14.638Z,91.44
2019-02-22T06:18:09.598Z,91.61
2019-02-22T06:19:08.555Z,91.35
2019-02-22T06:20:08.547Z,91.65
2019-02-22T06:21:08.539Z,91.61
2019-02-22T06:22:08.521Z,91.91
2019-02-22T06:23:08.545Z,91.55
2019-02-22T06:24:08.516Z,91.71
2019-02-22T06:25:08.508Z,91.65
2019-02-22T06:26:08.487Z,91.91
2019-02-22T06:27:08.465Z,91.91
2019-02-22T06:28:08.480Z,91.91
2019-02-22T06:29:08.443Z,91.75
2019-02-22T06:30:08.441Z,91.55
2019-02-22T06:31:08.440Z,91.75
2019-02-22T06:32:08.409Z,91.61
2019-02-22T06:33:08.428Z,91.86
2019-02-22T06:34:08.385Z,91.71
2019-02-22T06:35:09.153Z,91.40
2019-02-22T06:36:08.368Z,91.61
2019-02-22T06:37:08.368Z,91.44
2019-02-22T06:38:08.374Z,91.44
2019-02-22T06:39:08.331Z,91.65
2019-02-22T06:40:08.331Z,91.65
2019-02-22T06:41:08.425Z,91.65
2019-02-22T06:42:08.303Z,91.71
2019-02-22T06:43:08.314Z,91.91
2019-02-22T06:44:08.281Z,91.61
2019-02-22T06:45:08.270Z,91.82
2019-02-22T06:46:08.261Z,92.02
2019-02-22T06:47:08.256Z,91.96
2019-02-22T06:48:08.263Z,91.65
2019-02-22T06:49:08.241Z,91.86
2019-02-22T06:50:08.223Z,92.02
2019-02-22T06:51:08.207Z,92.06
2019-02-22T06:52:08.192Z,91.35
2019-02-22T06:53:08.172Z,91.65
2019-02-22T06:54:08.191Z,91.03
2019-02-22T06:55:08.158Z,91.20
2019-02-22T06:56:08.150Z,91.14
2019-02-22T06:57:08.134Z,91.09
2019-02-22T06:58:08.116Z,91.20
2019-02-22T06:59:08.137Z,91.71
2019-02-22T07:00:08.096Z,91.82
2019-02-22T07:01:08.083Z,91.82
2019-02-22T07:02:08.076Z,91.82
2019-02-22T07:03:08.061Z,91.71
2019-02-22T07:04:08.083Z,91.61
2019-02-22T07:05:08.041Z,91.55
2019-02-22T07:06:08.072Z,91.20
2019-02-22T07:07:08.025Z,90.99
2019-02-22T07:08:08.008Z,91.20
2019-02-22T07:09:08.058Z,90.89
2019-02-22T07:10:08.019Z,91.14
2019-02-22T07:11:07.972Z,91.03
2019-02-22T07:12:07.959Z,90.89
2019-02-22T07:13:07.954Z,90.99
2019-02-22T07:14:07.964Z,90.99
2019-02-22T07:15:07.928Z,91.09
2019-02-22T07:16:07.918Z,91.50
2019-02-22T07:17:07.905Z,90.83
2019-02-22T07:18:07.899Z,90.58
2019-02-22T07:19:07.937Z,90.99
2019-02-22T07:20:07.916Z,90.89
2019-02-22T07:21:07.868Z,90.89
2019-02-22T07:22:07.855Z,90.99
2019-02-22T07:23:07.846Z,90.89
2019-02-22T07:24:07.841Z,90.89
2019-02-22T07:25:07.853Z,90.89
2019-02-22T07:26:07.819Z,90.58
2019-02-22T07:27:07.794Z,91.05
2019-02-22T07:28:07.783Z,90.69
2019-02-22T07:29:07.779Z,90.69
2019-02-22T07:30:07.784Z,90.89
2019-02-22T07:31:07.759Z,90.99
2019-02-22T07:32:07.746Z,91.20
2019-02-22T07:33:07.724Z,90.69
2019-02-22T07:34:07.713Z,90.99
2019-02-22T07:35:09.669Z,91.71
2019-02-22T07:36:07.699Z,91.71
2019-02-22T07:37:07.680Z,91.09
2019-02-22T07:38:07.668Z,90.69
2019-02-22T07:39:07.663Z,91.20
2019-02-22T07:40:07.675Z,90.69
2019-02-22T07:41:07.635Z,90.99
2019-02-22T07:42:07.631Z,90.99
2019-02-22T07:43:08.403Z,91.20
2019-02-22T07:44:07.616Z,90.89
2019-02-22T07:45:07.646Z,91.20
2019-02-22T07:46:07.610Z,91.09
2019-02-22T07:47:07.614Z,90.79
2019-02-22T07:48:07.563Z,90.99
2019-02-22T07:49:07.558Z,91.20
2019-02-22T07:50:07.545Z,90.69
2019-02-22T07:51:07.563Z,91.09
2019-02-22T07:52:07.518Z,91.20
2019-02-22T07:53:07.501Z,90.69
2019-02-22T07:54:07.508Z,91.09
2019-02-22T07:55:07.478Z,90.99
2019-02-22T07:56:07.497Z,90.99
2019-02-22T07:57:07.471Z,90.89
2019-02-22T07:58:08.701Z,90.44
2019-02-22T07:59:07.441Z,90.54
2019-02-22T08:00:07.437Z,90.99
2019-02-22T08:01:07.463Z,90.48
2019-02-22T08:02:07.402Z,90.13
2019-02-22T08:03:07.395Z,90.48
2019-02-22T08:04:07.396Z,90.28
2019-02-22T08:05:09.172Z,90.99
2019-02-22T08:06:07.358Z,90.99
2019-02-22T08:07:07.374Z,90.37
2019-02-22T08:08:07.335Z,90.58
2019-02-22T08:09:07.335Z,90.75
2019-02-22T08:10:07.309Z,90.79
2019-02-22T08:11:07.325Z,90.58
2019-02-22T08:12:07.316Z,90.23
2019-02-22T08:13:07.279Z,90.44
2019-02-22T08:14:08.002Z,90.69
2019-02-22T08:15:07.255Z,90.79
2019-02-22T08:16:07.269Z,90.58
2019-02-22T08:17:07.255Z,90.69
2019-02-22T08:18:07.223Z,90.28
2019-02-22T08:19:07.209Z,90.23
2019-02-22T08:20:07.198Z,90.37
2019-02-22T08:21:07.217Z,90.37
2019-02-22T08:22:07.199Z,90.28
2019-02-22T08:23:07.180Z,90.58
2019-02-22T08:24:07.155Z,90.79
2019-02-22T08:25:07.143Z,90.58
2019-02-22T08:26:07.131Z,90.23
2019-02-22T08:27:07.151Z,90.37
2019-02-22T08:28:07.107Z,90.48
2019-02-22T08:29:07.108Z,90.17
2019-02-22T08:30:07.094Z,90.37
2019-02-22T08:31:07.077Z,90.58
2019-02-22T08:32:07.103Z,90.58
2019-02-22T08:33:07.054Z,90.75
2019-02-22T08:34:07.049Z,90.54
2019-02-22T08:35:07.039Z,90.54
2019-02-22T08:36:07.019Z,90.34
2019-02-22T08:37:07.038Z,89.62
2019-02-22T08:38:07.000Z,89.72
2019-02-22T08:39:06.986Z,90.13
2019-02-22T08:40:06.982Z,90.03
2019-02-22T08:41:06.968Z,89.83
2019-02-22T08:42:06.991Z,89.83
2019-02-22T08:43:06.940Z,90.03
2019-02-22T08:44:06.929Z,90.03
2019-02-22T08:45:09.523Z,89.92
2019-02-22T08:46:06.908Z,90.09
2019-02-22T08:47:06.937Z,89.78
2019-02-22T08:48:06.884Z,89.68
2019-02-22T08:49:06.875Z,88.65
2019-02-22T08:50:06.867Z,88.35
2019-02-22T08:51:06.868Z,88.51
2019-02-22T08:52:06.841Z,88.45
2019-02-22T08:53:06.873Z,88.10
2019-02-22T08:54:06.827Z,88.71
2019-02-22T08:55:06.817Z,88.41
2019-02-22T08:56:06.796Z,88.31
2019-02-22T08:57:06.792Z,87.79
2019-02-22T08:58:06.804Z,88.10
2019-02-22T08:59:06.799Z,88.14
2019-02-22T09:00:06.751Z,88.20
2019-02-22T09:01:06.741Z,88.51
2019-02-22T09:02:06.737Z,88.10
2019-02-22T09:03:06.741Z,87.70
2019-02-22T09:04:06.726Z,87.59
2019-02-22T09:05:06.694Z,87.79
2019-02-22T09:06:06.693Z,88.10
2019-02-22T09:07:06.685Z,87.04
2019-02-22T09:08:06.693Z,87.24
2019-02-22T09:09:06.666Z,86.73
2019-02-22T09:10:06.651Z,86.43
2019-02-22T09:11:06.631Z,86.73
2019-02-22T09:12:06.616Z,87.04
2019-02-22T09:13:06.723Z,87.71
2019-02-22T09:14:06.596Z,88.49
2019-02-22T09:15:06.582Z,88.31
2019-02-22T09:16:06.595Z,85.41
2019-02-22T09:17:06.629Z,83.23
2019-02-22T09:18:06.578Z,82.45
2019-02-22T09:19:06.614Z,82.96
2019-02-22T09:20:06.590Z,83.06
2019-02-22T09:21:06.537Z,84.08
2019-02-22T09:22:06.507Z,82.65
2019-02-22T09:23:07.586Z,81.80
2019-02-22T09:24:06.513Z,83.23
2019-02-22T09:26:07.634Z,80.68
2019-02-22T09:27:06.478Z,80.98
2019-02-22T09:28:06.482Z,81.73
2019-02-22T09:29:06.575Z,82.86
2019-02-22T09:30:06.423Z,83.71
2019-02-22T09:31:06.454Z,85.04
2019-02-22T09:32:06.434Z,84.55
2019-02-22T09:33:06.554Z,82.57
2019-02-22T09:34:06.479Z,81.76
2019-02-22T09:35:06.410Z,78.60
2019-02-22T09:36:06.430Z,79.00
2019-02-22T09:37:06.348Z,80.33
2019-02-22T09:38:06.333Z,81.86
2019-02-22T09:39:06.345Z,80.54
2019-02-22T09:40:06.347Z,81.25
2019-02-22T09:41:06.301Z,80.78
2019-02-22T09:42:06.289Z,81.29
2019-02-22T09:43:06.283Z,81.63
2019-02-22T09:44:06.265Z,82.75
2019-02-22T09:45:06.280Z,82.79
2019-02-22T09:46:06.250Z,82.79
2019-02-22T09:47:06.244Z,83.37
2019-02-22T09:48:06.222Z,81.80
2019-02-22T09:49:06.210Z,81.70
2019-02-22T09:50:06.251Z,80.78
2019-02-22T09:51:06.186Z,80.68
2019-02-22T09:55:44.271Z,80.82
2019-02-22T09:56:36.103Z,80.71
2019-02-22T09:57:36.143Z,82.35
2019-02-22T09:58:36.074Z,81.12
2019-02-22T09:59:36.040Z,81.02
2019-02-22T10:00:36.048Z,81.94
2019-02-22T10:01:36.040Z,82.65
2019-02-22T10:02:36.003Z,80.71
2019-02-22T10:03:35.998Z,81.02
2019-02-22T10:04:35.981Z,80.71
2019-02-22T10:05:35.998Z,81.26
2019-02-22T10:06:35.964Z,82.24
2019-02-22T10:07:35.964Z,81.67
2019-02-22T10:08:35.967Z,82.08
2019-02-22T10:09:35.930Z,82.89
2019-02-22T10:10:35.950Z,82.96
2019-02-22T10:11:35.923Z,81.94
2019-02-22T10:12:35.893Z,81.12
2019-02-22T10:13:35.881Z,80.71
2019-02-22T10:14:35.885Z,80.91
2019-02-22T10:15:35.883Z,81.12
2019-02-22T10:16:35.874Z,81.39
2019-02-22T10:17:35.850Z,81.04
2019-02-22T10:18:35.829Z,80.19
2019-02-22T10:19:35.817Z,78.93
2019-02-22T10:20:35.840Z,78.22
2019-02-22T10:21:35.804Z,77.84
2019-02-22T10:22:35.796Z,76.31
2019-02-22T10:23:35.774Z,75.70
2019-02-22T10:24:35.771Z,76.62
2019-02-22T10:25:35.785Z,76.11
2019-02-22T10:26:35.774Z,76.21
2019-02-22T10:27:35.737Z,75.26
2019-02-22T10:28:35.720Z,73.94
2019-02-22T10:29:35.710Z,73.87
2019-02-22T10:30:35.707Z,74.72
2019-02-22T10:31:35.716Z,75.47
2019-02-22T10:32:35.685Z,75.47
2019-02-22T10:33:36.857Z,76.32
2019-02-22T10:34:35.654Z,76.83
2019-02-22T10:35:35.649Z,77.24
2019-02-22T10:36:44.823Z,76.53
2019-02-22T10:37:36.618Z,76.62
2019-02-22T10:38:36.131Z,76.83
2019-02-22T10:39:35.600Z,76.83
2019-02-22T10:40:35.596Z,76.73
2019-02-22T10:41:35.575Z,76.73
2019-02-22T10:42:35.753Z,77.24
2019-02-22T10:43:35.552Z,76.62
2019-02-22T10:44:35.541Z,76.18
2019-02-22T10:45:36.926Z,75.37
2019-02-22T10:46:35.520Z,75.47
2019-02-22T10:47:35.541Z,74.62
2019-02-22T10:48:35.498Z,74.18
2019-02-22T10:49:35.488Z,73.36
2019-02-22T10:50:35.483Z,71.70
2019-02-22T10:51:35.504Z,72.55
2019-02-22T10:52:35.660Z,74.01
2019-02-22T10:53:35.440Z,74.52
2019-02-22T10:54:35.429Z,74.41
2019-02-22T10:55:35.419Z,74.28
2019-02-22T10:56:35.410Z,72.92
2019-02-22T10:57:35.435Z,72.41
2019-02-22T10:58:35.389Z,71.30
2019-02-22T10:59:35.373Z,71.50
2019-02-22T11:00:35.362Z,72.41
2019-02-22T11:01:35.353Z,72.41
2019-02-22T11:02:35.381Z,72.72
2019-02-22T11:03:35.331Z,73.02
2019-02-22T11:04:35.317Z,73.33
2019-02-22T11:05:35.306Z,73.02
2019-02-22T11:06:35.296Z,72.48
2019-02-22T11:07:37.159Z,71.36
2019-02-22T11:08:35.305Z,71.36
2019-02-22T11:09:35.267Z,71.77
2019-02-22T11:10:35.253Z,72.58
2019-02-22T11:11:35.238Z,72.62
2019-02-22T11:12:35.264Z,72.75
2019-02-22T11:13:35.213Z,73.26
2019-02-22T11:14:35.212Z,73.97
2019-02-22T11:15:35.192Z,74.52
2019-02-22T11:16:35.180Z,74.41
2019-02-22T11:17:35.172Z,74.72
2019-02-22T11:18:35.185Z,74.62
2019-02-22T11:19:35.153Z,74.21
2019-02-22T11:20:35.135Z,75.06
2019-02-22T11:21:35.124Z,75.47
2019-02-22T11:22:35.122Z,74.62
2019-02-22T11:23:35.126Z,74.45
2019-02-22T11:24:35.092Z,74.55
2019-02-22T11:25:35.081Z,75.06
2019-02-22T11:26:35.067Z,75.16
2019-02-22T11:27:35.055Z,75.37
2019-02-22T11:28:35.085Z,74.55
2019-02-22T11:29:35.034Z,74.86
2019-02-22T11:30:35.035Z,74.76
2019-02-22T11:31:35.012Z,74.76
2019-02-22T11:32:34.997Z,74.99
2019-02-22T11:33:35.013Z,75.47
2019-02-22T11:34:34.992Z,77.51
2019-02-22T11:35:34.964Z,77.00
2019-02-22T11:36:34.964Z,75.74
2019-02-22T11:37:34.940Z,74.69
2019-02-22T11:38:34.960Z,73.74
2019-02-22T11:39:35.018Z,72.58
2019-02-22T11:40:34.912Z,71.26
2019-02-22T11:41:34.903Z,71.77
2019-02-22T11:42:34.895Z,73.06
2019-02-22T11:43:34.877Z,71.33
2019-02-22T11:44:40.177Z,70.89
2019-02-22T11:45:35.851Z,70.45
2019-02-22T11:46:34.839Z,68.93
2019-02-22T11:47:34.828Z,70.01
2019-02-22T11:48:34.825Z,68.66
2019-02-22T11:49:34.852Z,69.47
2019-02-22T11:50:34.795Z,67.38
2019-02-22T11:51:34.792Z,66.83
2019-02-22T11:52:34.772Z,66.86
2019-02-22T11:53:34.775Z,66.56
2019-02-22T11:54:34.762Z,67.00
2019-02-22T11:55:34.765Z,67.74
2019-02-22T11:56:34.729Z,68.89
2019-02-22T11:57:34.718Z,69.23
2019-02-22T11:58:34.717Z,70.55
2019-02-22T11:59:34.704Z,70.07
2019-02-22T12:00:34.707Z,70.41
2019-02-22T12:01:34.685Z,71.12
2019-02-22T12:02:34.662Z,71.64
2019-02-22T12:03:34.658Z,71.47
2019-02-22T12:04:34.647Z,72.69
2019-02-22T12:05:34.673Z,72.55
2019-02-22T12:06:34.624Z,72.34
2019-02-22T12:07:34.608Z,71.64
2019-02-22T12:08:34.594Z,71.33
2019-02-22T12:09:34.599Z,70.89
2019-02-22T12:10:34.602Z,70.99
2019-02-22T12:11:34.566Z,70.48
2019-02-22T12:12:34.551Z,71.12
2019-02-22T12:13:34.541Z,71.64
2019-02-22T12:14:34.534Z,72.65
2019-02-22T12:15:34.549Z,72.69
2019-02-22T12:16:34.511Z,72.69
2019-02-22T12:17:34.503Z,72.78
2019-02-22T12:18:36.476Z,72.48
2019-02-22T12:19:34.481Z,71.87
2019-02-22T12:20:34.518Z,72.48
2019-02-22T12:21:34.459Z,71.77
2019-02-22T12:22:34.479Z,72.62
2019-02-22T12:23:34.452Z,73.16
2019-02-22T12:24:34.420Z,73.36
2019-02-22T12:25:34.438Z,73.94
2019-02-22T12:26:34.436Z,73.33
2019-02-22T12:27:34.412Z,73.57
2019-02-22T12:28:34.379Z,73.47
2019-02-22T12:29:34.363Z,73.47
2019-02-22T12:30:34.350Z,73.97
2019-02-22T12:31:34.372Z,74.28
2019-02-22T12:32:34.341Z,73.67
2019-02-22T12:33:34.329Z,73.16
2019-02-22T12:34:34.308Z,73.57
2019-02-22T12:35:34.301Z,74.49
2019-02-22T12:36:34.314Z,74.69
2019-02-22T12:37:34.293Z,74.73
2019-02-22T12:38:34.261Z,75.54
2019-02-22T12:39:34.249Z,75.23
2019-02-22T12:40:34.242Z,75.64
2019-02-22T12:41:34.269Z,75.64
2019-02-22T12:42:34.222Z,75.78
2019-02-22T12:43:34.213Z,75.54
2019-02-22T12:44:34.202Z,75.13
2019-02-22T12:45:34.182Z,75.44
2019-02-22T12:46:34.232Z,75.54
2019-02-22T12:47:34.180Z,75.10
2019-02-22T12:48:34.151Z,75.40
2019-02-22T12:49:34.138Z,75.51
2019-02-22T12:50:34.132Z,75.10
2019-02-22T12:51:34.117Z,75.10
2019-02-22T12:52:34.276Z,74.99
2019-02-22T12:53:34.096Z,75.92
2019-02-22T12:54:34.080Z,75.10
2019-02-22T12:55:34.081Z,74.79
2019-02-22T12:56:58.811Z,74.58
2019-02-22T12:57:35.063Z,74.99